createdAt,value
2022-12-01T00:01:21.297Z,-2.51
2022-12-01T00:03:48.349Z,-2.58
2022-12-01T00:06:20.406Z,-2.67
2022-12-01T00:09:25.742Z,-2.75
2022-12-01T00:11:53.978Z,-2.77
2022-12-01T00:14:20.734Z,-2.79
2022-12-01T00:16:47.646Z,-2.76
2022-12-01T00:19:14.596Z,-2.71
2022-12-01T00:21:41.333Z,-2.69
2022-12-01T00:24:10.007Z,-2.70
2022-12-01T00:26:38.425Z,-2.74
2022-12-01T00:29:05.893Z,-2.80
2022-12-01T00:31:33.376Z,-2.82
2022-12-01T00:34:00.643Z,-2.84
2022-12-01T00:36:27.486Z,-2.87
2022-12-01T00:38:55.800Z,-2.84
2022-12-01T00:41:24.601Z,-2.82
2022-12-01T00:43:51.689Z,-2.75
2022-12-01T00:46:19.944Z,-2.68
2022-12-01T00:48:47.501Z,-2.66
2022-12-01T00:51:14.316Z,-2.65
2022-12-01T00:53:41.078Z,-2.70
2022-12-01T00:56:07.774Z,-2.76
2022-12-01T00:58:34.553Z,-2.80
2022-12-01T01:01:01.835Z,-2.84
2022-12-01T01:03:30.067Z,-2.89
2022-12-01T01:06:08.177Z,-2.97
2022-12-01T01:08:35.926Z,-2.98
2022-12-01T01:11:04.547Z,-3.00
2022-12-01T01:13:31.906Z,-3.04
2022-12-01T01:16:14.277Z,-3.03
2022-12-01T01:18:41.212Z,-3.00
2022-12-01T01:21:12.132Z,-2.98
2022-12-01T01:23:39.260Z,-2.99
2022-12-01T01:26:13.041Z,-2.97
2022-12-01T01:28:41.077Z,-2.92
2022-12-01T01:31:13.391Z,-2.94
2022-12-01T01:33:40.739Z,-2.96
2022-12-01T01:36:08.451Z,-3.02
2022-12-01T01:38:35.859Z,-3.07
2022-12-01T01:41:04.490Z,-3.09
2022-12-01T01:43:49.337Z,-3.11
2022-12-01T01:46:21.657Z,-3.09
2022-12-01T01:49:08.249Z,-3.08
2022-12-01T01:51:40.670Z,-3.05
2022-12-01T01:54:19.786Z,-3.02
2022-12-01T01:56:49.715Z,-3.02
2022-12-01T01:59:23.746Z,-3.04
2022-12-01T02:01:59.866Z,-3.06
2022-12-01T02:04:28.405Z,-3.07
2022-12-01T02:06:55.345Z,-3.11
2022-12-01T02:09:22.067Z,-3.18
2022-12-01T02:12:12.082Z,-3.24
2022-12-01T02:15:06.168Z,-3.30
2022-12-01T02:18:09.256Z,-3.29
2022-12-01T02:21:13.421Z,-3.26
2022-12-01T02:24:17.653Z,-3.21
2022-12-01T02:26:53.905Z,-3.17
2022-12-01T02:29:51.898Z,-3.13
2022-12-01T02:32:30.124Z,-3.11
2022-12-01T02:34:56.948Z,-3.13
2022-12-01T02:37:33.066Z,-3.21
2022-12-01T02:40:19.925Z,-3.27
2022-12-01T02:43:01.644Z,-3.36
2022-12-01T02:45:52.048Z,-3.43
2022-12-01T02:48:31.205Z,-3.50
2022-12-01T02:51:06.891Z,-3.55
2022-12-01T02:53:34.092Z,-3.56
2022-12-01T02:56:04.577Z,-3.57
2022-12-01T02:58:31.337Z,-3.59
2022-12-01T03:01:17.738Z,-3.57
2022-12-01T03:04:21.301Z,-3.52
2022-12-01T03:07:06.331Z,-3.49
2022-12-01T03:09:49.044Z,-3.45
2022-12-01T03:12:28.639Z,-3.41
2022-12-01T03:15:02.939Z,-3.43
2022-12-01T03:17:44.340Z,-3.43
2022-12-01T03:20:36.960Z,-3.43
2022-12-01T03:23:28.167Z,-3.46
2022-12-01T03:25:57.320Z,-3.49
2022-12-01T03:28:30.359Z,-3.48
2022-12-01T03:31:03.717Z,-3.45
2022-12-01T03:33:37.987Z,-3.44
2022-12-01T03:36:20.145Z,-3.41
2022-12-01T03:38:54.398Z,-3.41
2022-12-01T03:41:29.276Z,-3.42
2022-12-01T03:44:05.585Z,-3.43
2022-12-01T03:46:46.863Z,-3.50
2022-12-01T03:49:16.492Z,-3.58
2022-12-01T03:52:02.719Z,-3.62
2022-12-01T03:54:44.774Z,-3.62
2022-12-01T03:57:18.228Z,-3.67
2022-12-01T03:59:45.668Z,-3.70
2022-12-01T04:02:12.998Z,-3.72
2022-12-01T04:04:39.789Z,-3.71
2022-12-01T04:07:06.596Z,-3.70
2022-12-01T04:09:33.317Z,-3.68
2022-12-01T04:12:18.749Z,-3.68
2022-12-01T04:14:45.504Z,-3.69
2022-12-01T04:17:12.381Z,-3.64
2022-12-01T04:19:39.166Z,-3.58
2022-12-01T04:22:05.947Z,-3.56
2022-12-01T04:24:32.781Z,-3.54
2022-12-01T04:26:59.537Z,-3.50
2022-12-01T04:29:26.270Z,-3.54
2022-12-01T04:31:53.233Z,-3.62
2022-12-01T04:34:20.105Z,-3.64
2022-12-01T04:36:47.205Z,-3.62
2022-12-01T04:39:14.255Z,-3.57
2022-12-01T04:41:40.981Z,-3.54
2022-12-01T04:44:10.133Z,-3.50
2022-12-01T04:46:37.400Z,-3.48
2022-12-01T04:49:05.018Z,-3.51
2022-12-01T04:51:31.895Z,-3.56
2022-12-01T04:53:58.887Z,-3.61
2022-12-01T04:56:25.695Z,-3.65
2022-12-01T04:58:52.564Z,-3.67
2022-12-01T05:01:19.560Z,-3.69
2022-12-01T05:03:50.450Z,-3.73
2022-12-01T05:06:26.325Z,-3.77
2022-12-01T05:08:58.492Z,-3.78
2022-12-01T05:11:26.644Z,-3.83
2022-12-01T05:13:53.370Z,-3.86
2022-12-01T05:16:25.903Z,-3.86
2022-12-01T05:19:14.562Z,-3.85
2022-12-01T05:21:42.725Z,-3.79
2022-12-01T05:24:11.355Z,-3.77
2022-12-01T05:26:38.555Z,-3.75
2022-12-01T05:29:05.572Z,-3.76
2022-12-01T05:31:32.727Z,-3.80
2022-12-01T05:33:59.894Z,-3.81
2022-12-01T05:36:27.029Z,-3.85
2022-12-01T05:38:54.160Z,-3.88
2022-12-01T05:41:21.222Z,-3.91
2022-12-01T05:43:47.996Z,-3.86
2022-12-01T05:46:15.055Z,-3.83
2022-12-01T05:48:42.431Z,-3.77
2022-12-01T05:51:15.467Z,-3.75
2022-12-01T05:53:43.102Z,-3.72
2022-12-01T05:56:10.117Z,-3.73
2022-12-01T05:58:37.202Z,-3.75
2022-12-01T06:01:04.175Z,-3.72
2022-12-01T06:03:31.185Z,-3.68
2022-12-01T06:05:57.835Z,-3.70
2022-12-01T06:08:24.684Z,-3.72
2022-12-01T06:10:51.426Z,-3.73
2022-12-01T06:13:18.154Z,-3.64
2022-12-01T06:15:44.937Z,-3.54
2022-12-01T06:18:11.809Z,-3.39
2022-12-01T06:20:38.563Z,-3.16
2022-12-01T06:23:05.464Z,-2.94
2022-12-01T06:25:32.169Z,-2.65
2022-12-01T06:27:59.128Z,-2.17
2022-12-01T06:30:26.156Z,-1.60
2022-12-01T06:32:53.031Z,-1.21
2022-12-01T06:35:19.901Z,-0.89
2022-12-01T06:37:46.788Z,-0.65
2022-12-01T06:40:13.955Z,-0.36
2022-12-01T06:42:40.818Z,-0.15
2022-12-01T06:45:10.177Z,-0.16
2022-12-01T06:47:37.606Z,-0.11
2022-12-01T06:50:07.631Z,0.04
2022-12-01T06:52:35.886Z,0.37
2022-12-01T06:55:03.882Z,0.77
2022-12-01T06:57:31.353Z,1.17
2022-12-01T06:59:58.200Z,1.55
2022-12-01T07:02:25.472Z,1.91
2022-12-01T07:04:52.298Z,2.52
2022-12-01T07:07:19.058Z,2.94
2022-12-01T07:09:45.955Z,3.21
2022-12-01T07:12:12.794Z,3.46
2022-12-01T07:14:43.120Z,3.79
2022-12-01T07:17:09.964Z,3.93
2022-12-01T07:19:36.989Z,4.23
2022-12-01T07:22:03.801Z,4.61
2022-12-01T07:24:30.811Z,5.03
2022-12-01T07:26:57.616Z,5.27
2022-12-01T07:29:24.372Z,5.20
2022-12-01T07:31:51.125Z,5.40
2022-12-01T07:34:17.874Z,5.91
2022-12-01T07:36:44.748Z,6.40
2022-12-01T07:39:11.469Z,6.75
2022-12-01T07:41:38.385Z,6.69
2022-12-01T07:44:05.142Z,7.31
2022-12-01T07:46:32.174Z,7.67
2022-12-01T07:48:59.791Z,8.37
2022-12-01T07:51:28.464Z,9.05
2022-12-01T07:53:55.474Z,10.01
2022-12-01T07:56:22.716Z,10.13
2022-12-01T07:58:49.810Z,10.43
2022-12-01T08:01:21.795Z,10.92
2022-12-01T08:03:51.295Z,11.65
2022-12-01T08:06:19.157Z,11.62
2022-12-01T08:08:47.023Z,11.99
2022-12-01T08:11:31.198Z,12.29
2022-12-01T08:13:58.093Z,12.76
2022-12-01T08:16:25.700Z,13.06
2022-12-01T08:18:53.189Z,13.48
2022-12-01T08:21:23.489Z,14.17
2022-12-01T08:23:54.931Z,15.35
2022-12-01T08:26:23.627Z,16.35
2022-12-01T08:28:57.434Z,17.05
2022-12-01T08:31:26.194Z,17.88
2022-12-01T08:33:54.179Z,18.26
2022-12-01T08:36:21.948Z,18.05
2022-12-01T08:38:52.085Z,18.28
2022-12-01T08:41:20.201Z,18.97
2022-12-01T08:43:57.914Z,18.76
2022-12-01T08:46:31.703Z,19.11
2022-12-01T08:48:58.877Z,18.93
2022-12-01T08:51:26.372Z,19.12
2022-12-01T08:53:55.475Z,19.24
2022-12-01T08:56:35.824Z,19.69
2022-12-01T08:59:03.410Z,19.25
2022-12-01T09:01:32.245Z,18.77
2022-12-01T09:04:10.185Z,18.30
2022-12-01T09:06:42.318Z,19.14
2022-12-01T09:09:11.290Z,19.37
2022-12-01T09:11:38.752Z,19.35
2022-12-01T09:14:05.712Z,19.48
2022-12-01T09:16:32.752Z,19.77
2022-12-01T09:19:01.581Z,19.65
2022-12-01T09:21:30.659Z,19.50
2022-12-01T09:23:58.727Z,19.92
2022-12-01T09:26:26.152Z,19.66
2022-12-01T09:29:05.820Z,19.21
2022-12-01T09:31:33.596Z,18.27
2022-12-01T09:34:06.064Z,17.56
2022-12-01T09:36:35.302Z,17.15
2022-12-01T09:39:03.026Z,18.25
2022-12-01T09:41:35.182Z,18.73
2022-12-01T09:44:33.737Z,19.27
2022-12-01T09:47:26.786Z,20.07
2022-12-01T09:49:59.942Z,20.70
2022-12-01T09:52:33.118Z,20.99
2022-12-01T09:55:00.739Z,20.94
2022-12-01T09:57:34.646Z,20.34
2022-12-01T10:00:18.229Z,20.09
2022-12-01T10:03:02.565Z,20.24
2022-12-01T10:06:18.565Z,20.33
2022-12-01T10:08:38.850Z,20.79
2022-12-01T10:11:23.983Z,21.38
2022-12-01T10:13:51.237Z,21.91
2022-12-01T10:16:26.043Z,21.90
2022-12-01T10:19:00.987Z,21.21
2022-12-01T10:21:46.587Z,21.71
2022-12-01T10:24:20.943Z,22.31
2022-12-01T10:27:02.802Z,22.74
2022-12-01T10:29:46.399Z,22.21
2022-12-01T10:32:32.142Z,21.30
2022-12-01T10:34:58.789Z,19.82
2022-12-01T10:37:28.262Z,18.36
2022-12-01T10:39:57.204Z,18.02
2022-12-01T10:42:39.105Z,17.45
2022-12-01T10:45:15.205Z,17.00
2022-12-01T10:48:18.143Z,16.87
2022-12-01T10:50:56.924Z,15.85
2022-12-01T10:53:23.815Z,15.02
2022-12-01T10:56:04.291Z,14.43
2022-12-01T10:58:41.177Z,14.22
2022-12-01T11:01:16.405Z,14.11
2022-12-01T11:03:43.641Z,13.69
2022-12-01T11:06:13.094Z,13.44
2022-12-01T11:08:52.424Z,13.28
2022-12-01T11:11:46.059Z,13.28
2022-12-01T11:14:23.341Z,13.75
2022-12-01T11:16:53.484Z,14.47
2022-12-01T11:19:33.569Z,15.05
2022-12-01T11:22:28.730Z,15.79
2022-12-01T11:25:00.186Z,16.47
2022-12-01T11:27:50.429Z,16.70
2022-12-01T11:30:24.196Z,17.03
2022-12-01T11:32:54.301Z,17.31
2022-12-01T11:35:24.462Z,17.09
2022-12-01T11:40:57.564Z,17.03
2022-12-01T11:43:38.356Z,17.01
2022-12-01T11:46:07.559Z,16.31
2022-12-01T11:48:35.957Z,15.66
2022-12-01T11:51:08.747Z,14.92
2022-12-01T11:53:38.503Z,14.23
2022-12-01T11:56:28.164Z,13.65
2022-12-01T11:59:02.959Z,13.13
2022-12-01T12:02:04.112Z,12.46
2022-12-01T12:04:54.867Z,11.80
2022-12-01T12:07:39.023Z,11.33
2022-12-01T12:10:34.033Z,10.88
2022-12-01T12:13:16.333Z,10.44
2022-12-01T12:16:10.353Z,10.16
2022-12-01T12:19:01.674Z,9.65
2022-12-01T12:21:40.798Z,9.48
2022-12-01T12:24:07.569Z,9.25
2022-12-01T12:27:12.157Z,9.11
2022-12-01T12:29:59.678Z,8.88
2022-12-01T12:32:26.469Z,8.61
2022-12-01T12:35:27.862Z,8.59
2022-12-01T12:38:22.223Z,8.50
2022-12-01T12:41:23.102Z,8.31
2022-12-01T12:44:01.910Z,8.13
2022-12-01T12:46:37.489Z,8.01
2022-12-01T12:49:43.474Z,7.89
2022-12-01T12:52:16.939Z,7.79
2022-12-01T12:54:51.098Z,7.73
2022-12-01T12:57:29.958Z,7.57
2022-12-01T13:00:11.845Z,7.53
2022-12-01T13:02:47.976Z,7.40
2022-12-01T13:05:38.363Z,7.26
2022-12-01T13:08:18.960Z,7.05
2022-12-01T13:10:45.770Z,6.97
2022-12-01T13:13:23.610Z,6.88
2022-12-01T13:15:53.533Z,6.76
2022-12-01T13:18:34.195Z,6.61
2022-12-01T13:21:03.875Z,6.54
2022-12-01T13:23:37.097Z,6.39
2022-12-01T13:26:07.946Z,6.32
2022-12-01T13:28:40.717Z,6.19
2022-12-01T13:31:13.622Z,6.16
2022-12-01T13:34:02.413Z,6.08
2022-12-01T13:36:46.583Z,5.93
2022-12-01T13:39:27.271Z,5.86
2022-12-01T13:42:06.213Z,5.79
2022-12-01T13:44:33.065Z,5.77
2022-12-01T13:47:24.352Z,5.72
2022-12-01T13:49:52.727Z,5.60
2022-12-01T13:52:22.387Z,5.55
2022-12-01T13:55:07.514Z,5.49
2022-12-01T13:57:43.654Z,5.38
2022-12-01T14:00:24.816Z,5.32
2022-12-01T14:03:18.671Z,5.26
2022-12-01T14:06:05.070Z,5.16
2022-12-01T14:09:04.117Z,5.07
2022-12-01T14:11:33.178Z,4.96
2022-12-01T14:14:11.022Z,4.87
2022-12-01T14:16:58.624Z,4.78
2022-12-01T14:19:46.477Z,4.68
2022-12-01T14:22:36.617Z,4.61
2022-12-01T14:25:29.922Z,4.50
2022-12-01T14:28:01.095Z,4.37
2022-12-01T14:30:45.940Z,4.26
2022-12-01T14:33:45.907Z,4.15
2022-12-01T14:36:18.574Z,4.03
2022-12-01T14:38:46.684Z,3.91
2022-12-01T14:41:24.398Z,3.74
2022-12-01T14:44:03.493Z,3.59
2022-12-01T14:46:59.093Z,3.50
2022-12-01T14:49:32.939Z,3.42
2022-12-01T14:52:06.777Z,3.36
2022-12-01T14:54:43.310Z,3.32
2022-12-01T14:57:16.537Z,3.22
2022-12-01T14:59:44.280Z,3.13
2022-12-01T15:02:11.991Z,3.07
2022-12-01T15:05:15.341Z,3.03
2022-12-01T15:07:47.038Z,2.91
2022-12-01T15:10:34.512Z,2.79
2022-12-01T15:13:22.278Z,2.66
2022-12-01T15:15:57.665Z,2.50
2022-12-01T15:18:36.206Z,2.40
2022-12-01T15:21:06.436Z,2.33
2022-12-01T15:23:33.646Z,2.24
2022-12-01T15:26:00.421Z,2.15
2022-12-01T15:28:31.736Z,2.09
2022-12-01T15:31:00.081Z,2.02
2022-12-01T15:33:36.566Z,1.98
2022-12-01T15:36:06.707Z,1.95
2022-12-01T15:38:37.283Z,1.92
2022-12-01T15:43:56.155Z,1.89
2022-12-01T15:46:32.167Z,1.86
2022-12-01T15:49:32.209Z,1.84
2022-12-01T15:52:11.805Z,1.78
2022-12-01T15:54:39.304Z,1.72
2022-12-01T15:57:06.701Z,1.69
2022-12-01T15:59:44.017Z,1.67
2022-12-01T16:02:20.454Z,1.64
2022-12-01T16:04:49.208Z,1.59
2022-12-01T16:07:16.374Z,1.52
2022-12-01T16:09:56.292Z,1.45
2022-12-01T16:12:28.574Z,1.34
2022-12-01T16:15:18.015Z,1.24
2022-12-01T16:17:50.910Z,1.11
2022-12-01T16:20:38.788Z,1.04
2022-12-01T16:23:18.787Z,1.00
2022-12-01T16:25:47.987Z,1.02
2022-12-01T16:28:24.431Z,1.06
2022-12-01T16:30:52.234Z,1.06
2022-12-01T16:33:23.470Z,1.06
2022-12-01T16:35:51.749Z,1.04
2022-12-01T16:38:24.162Z,1.04
2022-12-01T16:40:53.964Z,1.05
2022-12-01T16:43:23.383Z,1.08
2022-12-01T16:45:57.358Z,1.10
2022-12-01T16:48:24.264Z,1.13
2022-12-01T16:50:52.733Z,1.13
2022-12-01T16:53:20.893Z,1.09
2022-12-01T16:55:52.625Z,1.05
2022-12-01T16:58:19.794Z,1.03
2022-12-01T17:00:52.048Z,1.00
2022-12-01T17:03:24.193Z,1.04
2022-12-01T17:05:52.413Z,1.05
2022-12-01T17:08:20.351Z,1.07
2022-12-01T17:10:50.520Z,1.14
2022-12-01T17:13:19.378Z,1.15
2022-12-01T17:15:49.136Z,1.10
2022-12-01T17:18:18.433Z,1.12
2022-12-01T17:20:56.980Z,1.08
2022-12-01T17:23:23.855Z,1.03
2022-12-01T17:25:50.619Z,1.01
2022-12-01T17:28:17.620Z,1.00
2022-12-01T17:30:44.449Z,0.97
2022-12-01T17:33:11.845Z,0.93
2022-12-01T17:35:38.980Z,0.93
2022-12-01T17:38:06.299Z,0.99
2022-12-01T17:40:33.104Z,1.06
2022-12-01T17:43:00.350Z,1.14
2022-12-01T17:45:27.073Z,1.20
2022-12-01T17:47:54.719Z,1.23
2022-12-01T17:50:21.423Z,1.31
2022-12-01T17:52:48.206Z,1.34
2022-12-01T17:55:15.160Z,1.34
2022-12-01T17:57:41.946Z,1.32
2022-12-01T18:00:09.955Z,1.32
2022-12-01T18:02:38.080Z,1.27
2022-12-01T18:05:05.684Z,1.21
2022-12-01T18:07:32.476Z,1.14
2022-12-01T18:09:59.370Z,1.10
2022-12-01T18:12:26.129Z,1.10
2022-12-01T18:14:52.913Z,1.16
2022-12-01T18:17:19.740Z,1.16
2022-12-01T18:19:46.464Z,1.15
2022-12-01T18:22:13.164Z,1.09
2022-12-01T18:24:40.230Z,1.12
2022-12-01T18:27:06.953Z,1.19
2022-12-01T18:29:34.374Z,1.19
2022-12-01T18:32:01.092Z,1.19
2022-12-01T18:34:31.253Z,1.17
2022-12-01T18:36:59.920Z,1.10
2022-12-01T18:39:26.737Z,1.03
2022-12-01T18:41:53.900Z,1.05
2022-12-01T18:44:20.633Z,1.10
2022-12-01T18:46:47.462Z,1.12
2022-12-01T18:49:14.682Z,1.19
2022-12-01T18:51:41.514Z,1.25
2022-12-01T18:54:12.499Z,1.21
2022-12-01T18:56:39.368Z,1.19
2022-12-01T18:59:09.593Z,1.24
2022-12-01T19:01:40.199Z,1.26
2022-12-01T19:04:08.120Z,1.22
2022-12-01T19:06:37.505Z,1.20
2022-12-01T19:09:06.282Z,1.21
2022-12-01T19:11:33.160Z,1.17
2022-12-01T19:14:00.229Z,1.14
2022-12-01T19:16:27.400Z,1.19
2022-12-01T19:18:54.473Z,1.21
2022-12-01T19:21:21.503Z,1.24
2022-12-01T19:23:49.500Z,1.25
2022-12-01T19:26:19.514Z,1.27
2022-12-01T19:28:47.258Z,1.32
2022-12-01T19:31:20.444Z,1.37
2022-12-01T19:33:47.166Z,1.42
2022-12-01T19:36:17.447Z,1.38
2022-12-01T19:38:44.580Z,1.32
2022-12-01T19:41:12.529Z,1.31
2022-12-01T19:43:42.196Z,1.34
2022-12-01T19:46:19.119Z,1.38
2022-12-01T19:48:47.077Z,1.39
2022-12-01T19:51:23.946Z,1.38
2022-12-01T19:53:52.168Z,1.40
2022-12-01T19:56:19.873Z,1.42
2022-12-01T19:58:46.717Z,1.48
2022-12-01T20:01:15.753Z,1.57
2022-12-01T20:03:46.406Z,1.65
2022-12-01T20:06:16.179Z,1.74
2022-12-01T20:08:44.240Z,1.81
2022-12-01T20:11:12.304Z,1.86
2022-12-01T20:13:41.291Z,1.88
2022-12-01T20:16:14.631Z,1.88
2022-12-01T20:18:41.987Z,1.88
2022-12-01T20:21:15.971Z,1.91
2022-12-01T20:23:44.456Z,1.91
2022-12-01T20:26:11.593Z,1.88
2022-12-01T20:28:39.750Z,1.88
2022-12-01T20:31:16.370Z,1.92
2022-12-01T20:33:43.180Z,1.97
2022-12-01T20:36:10.862Z,2.02
2022-12-01T20:38:38.120Z,2.05
2022-12-01T20:41:05.246Z,2.08
2022-12-01T20:43:32.983Z,2.11
2022-12-01T20:46:00.950Z,2.13
2022-12-01T20:48:28.289Z,2.16
2022-12-01T20:50:55.192Z,2.18
2022-12-01T20:53:22.292Z,2.18
2022-12-01T20:55:49.165Z,2.15
2022-12-01T20:58:15.932Z,2.14
2022-12-01T21:00:45.625Z,2.14
2022-12-01T21:03:13.600Z,2.15
2022-12-01T21:05:43.434Z,2.18
2022-12-01T21:08:12.491Z,2.19
2022-12-01T21:10:44.284Z,2.19
2022-12-01T21:13:37.054Z,2.18
2022-12-01T21:16:09.584Z,2.18
2022-12-01T21:19:01.110Z,2.16
2022-12-01T21:21:30.951Z,2.16
2022-12-01T21:24:09.753Z,2.18
2022-12-01T21:26:38.262Z,2.18
2022-12-01T21:29:24.307Z,2.18
2022-12-01T21:31:54.263Z,2.16
2022-12-01T21:34:23.742Z,2.14
2022-12-01T21:36:53.529Z,2.15
2022-12-01T21:39:22.924Z,2.17
2022-12-01T21:41:52.700Z,2.18
2022-12-01T21:44:35.729Z,2.21
2022-12-01T21:47:30.565Z,2.26
2022-12-01T21:49:59.240Z,2.32
2022-12-01T21:52:32.688Z,2.33
2022-12-01T21:55:32.762Z,2.35
2022-12-01T21:57:59.797Z,2.35
2022-12-01T22:00:26.768Z,2.31
2022-12-01T22:03:08.983Z,2.28
2022-12-01T22:05:37.383Z,2.26
2022-12-01T22:08:39.437Z,2.21
2022-12-01T22:11:18.105Z,2.15
2022-12-01T22:14:15.156Z,2.14
2022-12-01T22:16:44.552Z,2.12
2022-12-01T22:19:14.252Z,2.11
2022-12-01T22:21:44.824Z,2.09
2022-12-01T22:24:38.588Z,2.09
2022-12-01T22:27:26.091Z,2.07
2022-12-01T22:30:01.693Z,2.08
2022-12-01T22:32:34.548Z,2.10
2022-12-01T22:35:29.083Z,2.11
2022-12-01T22:38:00.705Z,2.08
2022-12-01T22:40:38.288Z,2.08
2022-12-01T22:43:17.256Z,2.11
2022-12-01T22:45:48.513Z,2.18
2022-12-01T22:48:27.915Z,2.26
2022-12-01T22:50:56.168Z,2.33
2022-12-01T22:53:29.714Z,2.38
2022-12-01T22:56:00.204Z,2.41
2022-12-01T22:58:34.462Z,2.41
2022-12-01T23:01:31.489Z,2.41
2022-12-01T23:04:30.570Z,2.39
2022-12-01T23:06:58.839Z,2.34
2022-12-01T23:09:45.038Z,2.31
2022-12-01T23:12:26.537Z,2.26
2022-12-01T23:15:16.666Z,2.23
2022-12-01T23:17:43.412Z,2.27
2022-12-01T23:20:10.137Z,2.32
2022-12-01T23:22:37.916Z,2.35
2022-12-01T23:25:18.286Z,2.40
2022-12-01T23:27:47.679Z,2.44
2022-12-01T23:30:16.872Z,2.44
2022-12-01T23:32:45.753Z,2.41
2022-12-01T23:35:17.478Z,2.39
2022-12-01T23:37:47.624Z,2.37
2022-12-01T23:40:28.553Z,2.33
2022-12-01T23:43:02.962Z,2.33
2022-12-01T23:45:31.588Z,2.34
2022-12-01T23:47:58.326Z,2.33
2022-12-01T23:50:26.274Z,2.31
2022-12-01T23:52:53.396Z,2.35
2022-12-01T23:55:26.916Z,2.41
2022-12-01T23:57:54.790Z,2.46
